Aeroporto :
LOGIN :

Iscrizione | Disclaimer

   EN    FR    IT 

 










Sommario :    VFR   VFR Marginale   IFR   IFR Intensivo   IFR Molto Intensivo
Visibilità : 
Base nubi : 
>= 8 km
>= 3000ft
5 / 8 km
1000 / 3000 ft
1500m / 5 km
500 / 1000 ft
800 / 1500m
200 / 500 ft
< 800m
< 200 ft
Simboli :   Temporali  Nebbia  Neve Forte  Precipitazioni Forti  Vento > 20 kt
SIGMETs :   Varie  Temporali  Ghiacco  Turbolenza  Onda orograficha  Ceneri Vulcaniche






- Altitudine del aeroporto : 1959 ft
- Codice IATA : HOQ


EDQM - Hof Plauen

ULTIMO METAR :
  • 290550Z VRB03KT CAVOK 12/07 Q1016

METARs OBSOLETI :
  • 290520Z 15003KT CAVOK 10/08 Q1016
  • 290450Z 18004KT CAVOK 10/07 Q1016
  • 290420Z AUTO 19003KT 9999 // OVC065/// 09/06 Q1016
  • 290350Z AUTO 19002KT 9999 // OVC064/// 08/06 Q1017
  • 290320Z AUTO 15003KT 100V190 9999 // SCT064/// 08/05 Q1017
  • 290250Z AUTO 18003KT 9999 // FEW065/// SCT076/// 07/05 Q1017
  • 290220Z AUTO 18004KT 9999 // NCD 07/05 Q1017
  • 290150Z AUTO VRB03KT 9999 // NCD 08/05 Q1017

TAF TAF EDQM
Valido dal 29 a 06 ore il 29 a 15 ore UTC


290500Z 2906/2915 18005KT CAVOK
BECMG 2908/2909 21010KT
PROB30
TEMPO 2912/2915 SHRA SCT030TCU



MetMap, La meteo Aeronautica in un colpo d'occhio ! - Copyright ORBIFLY Dicembre 2007 - Disclaimer

ORBIFLY MET'MAP TEAM :

Programmazione e sviluppo : Alexandra Zaïnal
Concezione : Baudouin d'Aumeries
Supporto tecnico e logistico : Manuel Goepfert
Aiuto : Marc-Olivier Méhu
Aiuto per la traduzione : Arnaldo La Scala




FONTI E CREDITI :

   NOAA